FACN weather

Carnarvon Airport
Carnarvon, Northern Cape, South Africa

Public forecast

Using degrees Celsius for public forecast. Weather courtesy of forecast.io.

METAR (pilot weather report)

Closest report is De Aar Military Airport, 94.6 nm (175.2 km) ENE. Retrieved 2019/05/20 07:34 UTC (40 minutes ago):

FADY 200734Z 34010KT CAVOK 19/M00 Q1020

TAF (pilot weather forecast)

Forecast is more than 12 hours old.

Closest forecast is Bram Fischer International Airport, 244.8 nm (453.4 km) ENE. Retrieved 2019/05/19 00:10 UTC (1 day ago):

TAF FABL 192200Z 2000/2024 VRB03KT CAVOK TX26/2012Z TN06/2004Z BECMG 2008/2010 34010KT